Portada
METAR-TAF:

METAR-TAF

Aeroports :

Dupage Airport

West Chicago, Illinois, Estats Units d'Amèrica

latitud: 41-53-47N, longitud: 088-15-04W, altitud: 231 m

Observació

L'informe es va fer fa 43 minuts, a les 15:52 UTC
Vent 12 kt del Est amb ràfegues de 20 kt
Temperatura 17°C
Humitat 48%
Pressió 1027 hPa
Visibilitat: 16.1 km
Cel clar

METAR: KDPA 221552Z 08012G20KT 10SM CLR 17/06 A3032 RMK AO2 SLP268 T01670056

Hora: 11:35 (16:35 UTC)

Pronòstic

L'informe es va fer fa 1 hora i 39 minuts, a les 14:56 UTC
Pronòstic vàlid del 22 a les 15 UTC al 23 a les 12 UTC
Vent 9 kt del Est
Visibilitat: 10 km
Escasses núvols a una alçada de 4000 ft
A partir de les 23 a les 0100 UTC
Vent kt del Nord
Visibilitat: 10 km
Cel clar

TAF: KDPA 221456Z 2215/2312 08009KT P6SM FEW040 FM230100 00000KT P6SM SKC

Observacions i pronòstics meteorològics de més de 4000 aeroports (METAR i TAF).

Les estacions disponibles són els punts grocs i vermells al mapa.

Posi el ratolí al punt desitjat per veure el nom de l'estació.

Feu clic per veure les observacions i els pronòstics meteorològics.

Per canviar el mapa: feu clic els botons verds amb una creu de color negre per apropar; al botó verd amb un guió per allunyar la imatge; o en les fletxes verdes per a mapes adjacents.


METAR-TAF: